Aérodrome :
LOGIN :

S'inscrire | Disclaimer

   EN    FR    IT 

 










Légende :    VFR   VFR Marginal   IFR   IFR Intensif   IFR Très Intensif
Visi : 
Plafond : 
>= 8 km
>= 3000ft
5 à 8 km
1000 à 3000 ft
1500m à 5 km
500 à 1000 ft
800 à 1500m
200 à 500 ft
< 800m
< 200 ft
Symboles :   Orages  Brouillard  Fortes neiges  Fortes précipitations  Vent > 20 kt
SIGMETs :   Divers  Orages  Givrage  Turbulence  Onde Orograph.  Cendres Volcan.






- Altitude de l'aérodrome : 436 ft
- Code IATA : ANG


LFBU - Angoulême Brie Champniers

DERNIER METAR :
  • 231930Z AUTO 22009KT 9999 TS FEW011/// SCT033/// BKN054/// ///CB 20/18 Q1012 BECMG NSW SCT030

METARs EXPIRÉS :
  • 231900Z AUTO 25009KT 210V300 9999 -TSRA SCT027/// BKN035/// BKN056/// ///CB 21/18 Q1011 BECMG NSW SCT030
  • 231830Z AUTO 24009KT 210V270 9999 VCTS ///CB 23/17 Q1011 BECMG NSW SCT030
  • 231800Z AUTO 22009KT 190V250 9999 VCTS ///CB 24/17 Q1011 BECMG NSW SCT030
  • 231730Z AUTO 23009KT 9999 FEW027 SCT200 25/17 Q1009 NOSIG
  • 231700Z AUTO 25010KT 9999 FEW025 SCT230 25/17 Q1010 NOSIG

TAF AMD TAF LFBU
Valide du 23 à 18h jusqu'au 24 à 18h UTC


231748Z 2318/2418 26010KT 9999 SCT030
TEMPO 2318/2320 SCT060CB
PROB40
TEMPO 2318/2320 -TSRA
BECMG 2400/2402 20005KT
PROB30
TEMPO 2322/2408 BKN013
BECMG 2408/2410 26012KT
PROB30
TEMPO 2410/2413 4000 -SHRA BKN030TCU
TEMPO 2413/2418 26015G25KT



MET'MAP, la Météo Aéronautique d'un coup d'oeil ! - Copyright ORBIFLY Décembre 2007 - Disclaimer

ORBIFLY MET'MAP TEAM :

Programmation & Développement : Alexandra Zaïnal
Sur une idée originale de : Baudouin d'Aumeries
Assistance à la programmation : Marc-Olivier Méhu
Soutien technique & logistique : Manuel Goepfert

Contact : metmap@orbifly.com




SOURCES & CREDITS :

   NOAA